createdAt,value
2018-12-23T05:00:31.991Z,6.19
2018-12-23T05:01:31.980Z,6.24
2018-12-23T05:02:31.955Z,6.10
2018-12-23T05:03:31.942Z,6.14
2018-12-23T05:04:31.930Z,6.21
2018-12-23T05:05:31.920Z,6.24
2018-12-23T05:06:31.924Z,6.08
2018-12-23T05:07:31.897Z,6.17
2018-12-23T05:08:31.886Z,6.20
2018-12-23T05:09:31.875Z,6.32
2018-12-23T05:10:31.874Z,6.32
2018-12-23T05:11:31.867Z,6.30
2018-12-23T05:12:31.944Z,6.32
2018-12-23T05:13:34.202Z,6.32
2018-12-23T05:14:31.824Z,6.33
2018-12-23T05:15:31.807Z,6.36
2018-12-23T05:16:31.806Z,6.43
2018-12-23T05:17:31.783Z,6.40
2018-12-23T05:18:31.776Z,6.46
2018-12-23T05:19:31.762Z,6.43
2018-12-23T05:20:31.750Z,6.53
2018-12-23T05:21:31.763Z,6.45
2018-12-23T05:22:31.728Z,6.43
2018-12-23T05:23:31.720Z,6.58
2018-12-23T05:24:31.706Z,6.54
2018-12-23T05:25:31.694Z,6.57
2018-12-23T05:26:31.698Z,6.61
2018-12-23T05:27:31.671Z,6.64
2018-12-23T05:28:31.663Z,6.58
2018-12-23T05:29:31.648Z,6.61
2018-12-23T05:30:31.639Z,6.60
2018-12-23T05:31:31.645Z,6.55
2018-12-23T05:32:31.614Z,6.60
2018-12-23T05:33:31.603Z,6.53
2018-12-23T05:34:31.591Z,6.54
2018-12-23T05:35:31.581Z,6.53
2018-12-23T05:36:31.581Z,6.54
2018-12-23T05:37:31.558Z,6.61
2018-12-23T05:38:31.546Z,6.50
2018-12-23T05:39:31.535Z,6.55
2018-12-23T05:40:31.527Z,6.54
2018-12-23T05:41:31.526Z,6.54
2018-12-23T05:42:31.502Z,6.53
2018-12-23T05:43:31.495Z,6.51
2018-12-23T05:44:31.478Z,6.55
2018-12-23T05:45:31.493Z,6.58
2018-12-23T05:46:31.478Z,6.58
2018-12-23T05:47:31.445Z,6.61
2018-12-23T05:48:31.438Z,6.61
2018-12-23T05:49:31.424Z,6.60
2018-12-23T05:50:31.411Z,6.63
2018-12-23T05:51:31.415Z,6.58
2018-12-23T05:52:31.388Z,6.64
2018-12-23T05:53:31.378Z,6.64
2018-12-23T05:54:31.369Z,6.68
2018-12-23T05:55:31.357Z,6.69
2018-12-23T05:56:31.354Z,6.64
2018-12-23T05:57:31.343Z,6.64
2018-12-23T05:58:31.333Z,6.73
2018-12-23T05:59:31.307Z,6.69
2018-12-23T06:00:31.294Z,6.69
2018-12-23T06:01:31.301Z,6.71
2018-12-23T06:02:31.273Z,6.73
2018-12-23T06:03:31.261Z,6.71
2018-12-23T06:04:31.248Z,6.71
2018-12-23T06:05:31.237Z,6.71
2018-12-23T06:06:31.238Z,6.63
2018-12-23T06:07:31.215Z,6.68
2018-12-23T06:08:31.206Z,6.68
2018-12-23T06:09:31.199Z,6.64
2018-12-23T06:10:31.183Z,6.55
2018-12-23T06:11:31.187Z,6.53
2018-12-23T06:12:31.161Z,6.57
2018-12-23T06:13:31.148Z,6.50
2018-12-23T06:14:31.140Z,6.50
2018-12-23T06:15:31.129Z,6.50
2018-12-23T06:16:31.131Z,6.51
2018-12-23T06:17:31.102Z,6.43
2018-12-23T06:18:31.091Z,6.43
2018-12-23T06:19:31.080Z,6.43
2018-12-23T06:20:31.073Z,6.38
2018-12-23T06:21:31.073Z,6.35
2018-12-23T06:22:31.047Z,6.38
2018-12-23T06:23:31.035Z,6.36
2018-12-23T06:24:31.026Z,6.42
2018-12-23T06:25:31.012Z,6.50
2018-12-23T06:26:31.016Z,6.48
2018-12-23T06:27:30.992Z,6.57
2018-12-23T06:28:30.978Z,6.61
2018-12-23T06:29:30.979Z,6.61
2018-12-23T06:30:30.954Z,6.63
2018-12-23T06:31:30.958Z,6.68
2018-12-23T06:32:30.933Z,6.78
2018-12-23T06:33:30.923Z,6.68
2018-12-23T06:34:30.911Z,6.79
2018-12-23T06:35:30.898Z,6.82
2018-12-23T06:36:30.888Z,6.78
2018-12-23T06:37:30.895Z,6.81
2018-12-23T06:38:30.864Z,6.89
2018-12-23T06:39:30.858Z,6.87
2018-12-23T06:40:30.847Z,6.78
2018-12-23T06:41:30.830Z,6.86
2018-12-23T06:42:30.830Z,6.78
2018-12-23T06:43:30.807Z,6.79
2018-12-23T06:44:30.799Z,6.78
2018-12-23T06:45:30.785Z,6.87
2018-12-23T06:46:30.774Z,6.73
2018-12-23T06:47:30.775Z,6.72
2018-12-23T06:48:30.750Z,6.76
2018-12-23T06:49:30.740Z,6.63
2018-12-23T06:50:30.730Z,6.57
2018-12-23T06:51:30.714Z,6.60
2018-12-23T06:52:30.723Z,6.61
2018-12-23T06:53:30.693Z,6.54
2018-12-23T06:54:30.678Z,6.57
2018-12-23T06:55:30.669Z,6.60
2018-12-23T06:56:30.657Z,6.54
2018-12-23T06:57:30.665Z,6.54
2018-12-23T06:58:30.633Z,6.64
2018-12-23T06:59:30.626Z,6.60
2018-12-23T07:00:30.612Z,6.61
2018-12-23T07:01:30.599Z,6.75
2018-12-23T07:02:30.609Z,6.68
2018-12-23T07:03:30.579Z,6.78
2018-12-23T07:04:30.567Z,6.79
2018-12-23T07:05:30.542Z,6.75
2018-12-23T07:06:30.544Z,6.78
2018-12-23T07:07:30.557Z,6.86
2018-12-23T07:08:30.522Z,6.91
2018-12-23T07:09:30.509Z,6.89
2018-12-23T07:10:30.498Z,6.87
2018-12-23T07:11:30.495Z,6.83
2018-12-23T07:12:30.490Z,6.89
2018-12-23T07:13:30.464Z,6.89
2018-12-23T07:14:30.454Z,6.83
2018-12-23T07:15:30.441Z,6.83
2018-12-23T07:16:30.430Z,6.79
2018-12-23T07:17:30.425Z,6.75
2018-12-23T07:18:30.408Z,6.79
2018-12-23T07:19:30.396Z,6.82
2018-12-23T07:20:30.388Z,6.72
2018-12-23T07:21:30.374Z,6.76
2018-12-23T07:22:30.377Z,6.78
2018-12-23T07:23:30.352Z,6.82
2018-12-23T07:24:30.342Z,6.87
2018-12-23T07:25:30.329Z,6.83
2018-12-23T07:26:30.317Z,6.78
2018-12-23T07:27:30.318Z,6.68
2018-12-23T07:28:30.295Z,6.76
2018-12-23T07:29:30.284Z,6.81
2018-12-23T07:30:30.269Z,6.75
2018-12-23T07:31:30.261Z,6.72
2018-12-23T07:32:30.272Z,6.69
2018-12-23T07:33:30.239Z,6.71
2018-12-23T07:34:30.229Z,6.68
2018-12-23T07:35:30.218Z,6.75
2018-12-23T07:36:30.210Z,6.63
2018-12-23T07:37:30.205Z,6.68
2018-12-23T07:38:30.184Z,6.65
2018-12-23T07:39:30.208Z,6.72
2018-12-23T07:40:30.160Z,6.68
2018-12-23T07:41:30.148Z,6.76
2018-12-23T07:42:30.154Z,6.73
2018-12-23T07:43:30.130Z,6.73
2018-12-23T07:44:30.111Z,6.72
2018-12-23T07:45:30.098Z,6.75
2018-12-23T07:46:30.088Z,6.63
2018-12-23T07:47:30.092Z,6.71
2018-12-23T07:48:30.064Z,6.76
2018-12-23T07:49:30.054Z,6.73
2018-12-23T07:50:30.042Z,6.63
2018-12-23T07:51:30.035Z,6.72
2018-12-23T07:52:30.039Z,6.73
2018-12-23T07:53:30.009Z,6.76
2018-12-23T07:54:30.001Z,6.73
2018-12-23T07:55:29.996Z,6.73
2018-12-23T07:56:29.974Z,6.69
2018-12-23T07:57:29.975Z,6.75
2018-12-23T07:58:29.952Z,6.69
2018-12-23T07:59:29.940Z,6.68
2018-12-23T08:00:29.930Z,6.64
2018-12-23T08:01:29.918Z,6.73
2018-12-23T08:02:29.919Z,6.69
2018-12-23T08:03:29.895Z,6.64
2018-12-23T08:04:29.885Z,6.64
2018-12-23T08:05:29.939Z,6.68
2018-12-23T08:06:29.863Z,6.73
2018-12-23T08:07:36.148Z,6.68
2018-12-23T08:08:30.838Z,6.71
2018-12-23T08:09:29.827Z,6.72
2018-12-23T08:10:29.930Z,6.75
2018-12-23T08:11:29.804Z,6.73
2018-12-23T08:12:29.806Z,6.68
2018-12-23T08:13:29.783Z,6.75
2018-12-23T08:14:29.775Z,6.83
2018-12-23T08:15:29.762Z,6.76
2018-12-23T08:16:29.748Z,6.87
2018-12-23T08:17:29.749Z,6.81
2018-12-23T08:18:29.731Z,6.78
2018-12-23T08:19:29.715Z,6.83
2018-12-23T08:20:29.709Z,6.89
2018-12-23T08:21:29.692Z,6.87
2018-12-23T08:22:29.694Z,6.79
2018-12-23T08:23:29.668Z,6.82
2018-12-23T08:24:29.660Z,6.78
2018-12-23T08:25:35.570Z,6.78
2018-12-23T08:26:30.632Z,6.79
2018-12-23T08:27:29.637Z,6.89
2018-12-23T08:28:29.608Z,6.86
2018-12-23T08:29:29.598Z,6.94
2018-12-23T08:30:29.586Z,6.96
2018-12-23T08:31:29.576Z,6.97
2018-12-23T08:32:29.584Z,6.94
2018-12-23T08:33:29.552Z,6.99
2018-12-23T08:34:29.541Z,6.96
2018-12-23T08:35:29.537Z,6.99
2018-12-23T08:36:29.519Z,7.00
2018-12-23T08:37:29.546Z,6.96
2018-12-23T08:38:29.491Z,7.14
2018-12-23T08:39:29.485Z,7.08
2018-12-23T08:40:29.475Z,7.11
2018-12-23T08:41:29.512Z,7.16
2018-12-23T08:42:29.450Z,7.11
2018-12-23T08:43:29.452Z,7.12
2018-12-23T08:44:29.427Z,7.14
2018-12-23T08:45:29.417Z,7.15
2018-12-23T08:46:29.405Z,7.16
2018-12-23T08:47:29.395Z,7.23
2018-12-23T08:48:29.401Z,7.14
2018-12-23T08:49:29.373Z,7.15
2018-12-23T08:50:29.361Z,7.26
2018-12-23T08:51:29.353Z,7.18
2018-12-23T08:52:29.337Z,7.11
2018-12-23T08:53:29.342Z,7.23
2018-12-23T08:54:29.317Z,7.21
2018-12-23T08:55:29.305Z,7.14
2018-12-23T08:56:29.292Z,7.09
2018-12-23T08:57:29.281Z,7.14
2018-12-23T08:58:29.282Z,7.12
2018-12-23T08:59:29.259Z,7.29
2018-12-23T09:00:29.296Z,7.23
2018-12-23T09:01:29.235Z,7.19
2018-12-23T09:02:29.229Z,7.30
2018-12-23T09:03:29.225Z,7.24
2018-12-23T09:04:29.205Z,7.18
2018-12-23T09:05:29.199Z,7.26
2018-12-23T09:06:29.180Z,7.15
2018-12-23T09:07:29.169Z,7.23
2018-12-23T09:08:29.169Z,7.19
2018-12-23T09:09:29.147Z,7.24
2018-12-23T09:10:29.155Z,7.23
2018-12-23T09:11:29.123Z,7.26
2018-12-23T09:12:29.116Z,7.29
2018-12-23T09:13:29.121Z,7.24
2018-12-23T09:14:29.094Z,7.24
2018-12-23T09:15:29.080Z,7.27
2018-12-23T09:16:29.066Z,7.27
2018-12-23T09:17:29.055Z,7.27
2018-12-23T09:18:29.055Z,7.29
2018-12-23T09:19:29.171Z,7.32
2018-12-23T09:20:29.018Z,7.33
2018-12-23T09:21:29.010Z,7.32
2018-12-23T09:22:28.995Z,7.24
2018-12-23T09:23:29.000Z,7.27
2018-12-23T09:24:28.973Z,7.27
2018-12-23T09:25:28.962Z,7.32
2018-12-23T09:26:28.953Z,7.39
2018-12-23T09:27:28.938Z,7.36
2018-12-23T09:28:28.947Z,7.33
2018-12-23T09:29:28.917Z,7.42
2018-12-23T09:30:28.921Z,7.26
2018-12-23T09:31:28.906Z,7.44
2018-12-23T09:32:28.881Z,7.42
2018-12-23T09:33:28.890Z,7.41
2018-12-23T09:34:28.860Z,7.45
2018-12-23T09:35:28.857Z,7.41
2018-12-23T09:36:28.844Z,7.41
2018-12-23T09:37:28.826Z,7.44
2018-12-23T09:38:28.834Z,7.44
2018-12-23T09:39:28.802Z,7.44
2018-12-23T09:40:28.791Z,7.52
2018-12-23T09:41:28.780Z,7.37
2018-12-23T09:42:28.770Z,7.34
2018-12-23T09:43:28.769Z,7.45
2018-12-23T09:44:28.745Z,7.48
2018-12-23T09:45:28.736Z,7.47
2018-12-23T09:46:28.724Z,7.55
2018-12-23T09:47:28.713Z,7.55
2018-12-23T09:48:28.713Z,7.55
2018-12-23T09:49:28.693Z,7.55
2018-12-23T09:50:28.677Z,7.63
2018-12-23T09:51:28.667Z,7.58
2018-12-23T09:52:28.661Z,7.71
2018-12-23T09:53:28.660Z,7.60
2018-12-23T09:54:28.633Z,7.55
2018-12-23T09:55:28.625Z,7.58
2018-12-23T09:56:28.610Z,7.60
2018-12-23T09:57:28.619Z,7.58
2018-12-23T09:58:28.601Z,7.58
2018-12-23T09:59:28.582Z,7.57
2018-12-23T10:00:28.573Z,7.73
2018-12-23T10:01:28.603Z,7.69
2018-12-23T10:02:28.545Z,7.70
2018-12-23T10:03:28.629Z,7.73
2018-12-23T10:04:28.522Z,7.74
2018-12-23T10:05:28.505Z,7.73
2018-12-23T10:06:28.503Z,7.77
2018-12-23T10:07:28.484Z,7.79
2018-12-23T10:08:28.492Z,7.81
2018-12-23T10:09:28.466Z,7.82
2018-12-23T10:10:28.768Z,7.82
2018-12-23T10:11:28.437Z,7.81
2018-12-23T10:12:28.430Z,7.84
2018-12-23T10:13:28.431Z,7.76
2018-12-23T10:14:28.411Z,7.77
2018-12-23T10:15:28.394Z,7.88
2018-12-23T10:16:28.382Z,7.92
2018-12-23T10:17:28.369Z,7.86
2018-12-23T10:18:28.384Z,7.91
2018-12-23T10:19:28.347Z,7.94
2018-12-23T10:20:28.337Z,7.92
2018-12-23T10:21:28.326Z,7.91
2018-12-23T10:22:28.318Z,8.03
2018-12-23T10:23:28.315Z,7.92
2018-12-23T10:24:28.292Z,8.06
2018-12-23T10:25:28.284Z,8.07
2018-12-23T10:26:28.268Z,8.04
2018-12-23T10:27:28.261Z,8.03
2018-12-23T10:28:28.257Z,8.18
2018-12-23T10:29:28.507Z,8.07
2018-12-23T10:30:28.234Z,8.04
2018-12-23T10:31:28.212Z,8.12
2018-12-23T10:32:28.202Z,8.17
2018-12-23T10:33:28.205Z,8.09
2018-12-23T10:34:28.180Z,8.24
2018-12-23T10:35:28.167Z,8.14
2018-12-23T10:36:28.156Z,8.10
2018-12-23T10:37:28.145Z,8.07
2018-12-23T10:38:28.152Z,8.17
2018-12-23T10:39:28.121Z,8.25
2018-12-23T10:40:28.114Z,8.17
2018-12-23T10:41:28.103Z,8.27
2018-12-23T10:42:28.097Z,8.29
2018-12-23T10:43:28.114Z,8.27
2018-12-23T10:44:28.065Z,8.28
2018-12-23T10:45:28.054Z,8.27
2018-12-23T10:46:28.047Z,8.29
2018-12-23T10:47:28.031Z,8.29
2018-12-23T10:48:28.100Z,8.34
2018-12-23T10:49:28.026Z,8.36
2018-12-23T10:50:27.997Z,8.32
2018-12-23T10:51:27.986Z,8.27
2018-12-23T10:52:27.978Z,8.29
2018-12-23T10:53:27.964Z,8.28
2018-12-23T10:54:27.969Z,8.31
2018-12-23T10:55:27.942Z,8.31
2018-12-23T10:56:27.995Z,8.36
2018-12-23T10:57:27.920Z,8.34
2018-12-23T10:58:27.908Z,8.28
2018-12-23T10:59:27.914Z,8.29
2018-12-23T11:00:27.889Z,8.29
2018-12-23T11:01:27.869Z,8.28
2018-12-23T11:02:27.863Z,8.24
2018-12-23T11:03:27.847Z,8.24
2018-12-23T11:04:27.859Z,8.22
2018-12-23T11:05:27.825Z,8.17
2018-12-23T11:06:27.813Z,8.20
2018-12-23T11:07:27.802Z,8.13
2018-12-23T11:08:27.785Z,8.27
2018-12-23T11:09:27.791Z,8.17
2018-12-23T11:10:27.769Z,8.22
2018-12-23T11:11:27.759Z,8.21
2018-12-23T11:12:27.745Z,8.14
2018-12-23T11:13:27.734Z,8.12
2018-12-23T11:14:27.741Z,8.06
2018-12-23T11:15:27.711Z,8.10
2018-12-23T11:16:27.720Z,8.14
2018-12-23T11:17:27.679Z,8.09
2018-12-23T11:18:27.678Z,8.09
2018-12-23T11:19:27.685Z,8.18
2018-12-23T11:20:27.660Z,8.14
2018-12-23T11:21:27.646Z,8.13
2018-12-23T11:22:27.634Z,8.25
2018-12-23T11:23:27.624Z,8.28
2018-12-23T11:24:27.637Z,8.24
2018-12-23T11:25:27.620Z,8.28
2018-12-23T11:26:27.591Z,8.32
2018-12-23T11:27:27.577Z,8.25
2018-12-23T11:28:27.570Z,8.34
2018-12-23T11:29:31.604Z,8.37
2018-12-23T11:30:27.541Z,8.39
2018-12-23T11:31:27.533Z,8.40
2018-12-23T11:32:27.521Z,8.42
2018-12-23T11:33:27.512Z,8.42
2018-12-23T11:34:27.508Z,8.40
2018-12-23T11:35:27.581Z,8.50
2018-12-23T11:36:27.475Z,8.46
2018-12-23T11:37:27.463Z,8.47
2018-12-23T11:38:35.263Z,8.49
2018-12-23T11:39:28.456Z,8.46
2018-12-23T11:40:27.434Z,8.52
2018-12-23T11:41:27.405Z,8.49
2018-12-23T11:42:27.411Z,8.43
2018-12-23T11:43:27.458Z,8.43
2018-12-23T11:44:27.403Z,8.50
2018-12-23T11:45:27.390Z,8.50
2018-12-23T11:46:27.368Z,8.57
2018-12-23T11:47:27.353Z,8.57
2018-12-23T11:48:27.343Z,8.54
2018-12-23T11:49:27.344Z,8.61
2018-12-23T11:50:27.320Z,8.63
2018-12-23T11:51:27.308Z,8.73
2018-12-23T11:52:27.291Z,8.76
2018-12-23T11:53:27.289Z,8.73
2018-12-23T11:54:27.288Z,8.68
2018-12-23T11:55:27.283Z,8.67
2018-12-23T11:56:27.287Z,8.71
2018-12-23T11:57:27.246Z,8.71
2018-12-23T11:58:27.238Z,8.75
2018-12-23T11:59:27.237Z,8.71
2018-12-23T12:00:27.212Z,8.83
2018-12-23T12:01:27.196Z,8.79
2018-12-23T12:02:27.184Z,8.80
2018-12-23T12:03:27.177Z,8.68
2018-12-23T12:04:27.174Z,8.78
2018-12-23T12:05:27.156Z,8.78
2018-12-23T12:06:27.140Z,8.85
2018-12-23T12:07:27.124Z,8.70
2018-12-23T12:08:27.118Z,8.79
2018-12-23T12:09:27.122Z,8.75
2018-12-23T12:10:27.098Z,8.85
2018-12-23T12:11:27.087Z,8.82
2018-12-23T12:12:27.076Z,8.79
2018-12-23T12:13:27.065Z,8.73
2018-12-23T12:14:27.068Z,8.86
2018-12-23T12:15:27.043Z,8.85
2018-12-23T12:16:27.030Z,8.89
2018-12-23T12:17:27.023Z,8.85
2018-12-23T12:18:27.008Z,8.96
2018-12-23T12:19:27.010Z,8.91
2018-12-23T12:20:26.989Z,8.85
2018-12-23T12:21:26.976Z,8.94
2018-12-23T12:22:26.964Z,8.88
2018-12-23T12:23:26.952Z,8.89
2018-12-23T12:24:26.956Z,8.88
2018-12-23T12:25:26.930Z,8.91
2018-12-23T12:26:26.923Z,8.89
2018-12-23T12:27:26.908Z,8.96
2018-12-23T12:28:26.901Z,8.93
2018-12-23T12:29:26.901Z,8.93
2018-12-23T12:30:26.872Z,8.96
2018-12-23T12:31:26.863Z,8.88
2018-12-23T12:32:26.850Z,8.91
2018-12-23T12:33:26.835Z,9.00
2018-12-23T12:34:26.844Z,8.89
2018-12-23T12:35:26.822Z,8.94
2018-12-23T12:36:26.805Z,8.89
2018-12-23T12:37:26.798Z,8.94
2018-12-23T12:38:26.786Z,8.89
2018-12-23T12:39:30.878Z,8.91
2018-12-23T12:40:26.764Z,8.94
2018-12-23T12:41:26.753Z,8.93
2018-12-23T12:42:26.729Z,8.86
2018-12-23T12:43:26.731Z,8.91
2018-12-23T12:44:26.735Z,8.94
2018-12-23T12:45:26.724Z,8.83
2018-12-23T12:46:26.697Z,8.85
2018-12-23T12:47:26.690Z,8.83
2018-12-23T12:48:26.676Z,8.80
2018-12-23T12:49:26.697Z,8.82
2018-12-23T12:50:26.655Z,8.79
2018-12-23T12:51:26.644Z,8.82
2018-12-23T12:52:26.634Z,8.80
2018-12-23T12:53:26.628Z,8.85
2018-12-23T12:54:26.613Z,8.85
2018-12-23T12:55:26.611Z,8.83
2018-12-23T12:56:26.596Z,8.80
2018-12-23T12:57:26.577Z,8.79
2018-12-23T12:58:26.569Z,8.86
2018-12-23T12:59:26.557Z,8.80
2018-12-23T13:00:26.543Z,8.94
2018-12-23T13:01:26.535Z,8.85
2018-12-23T13:02:26.521Z,8.85
2018-12-23T13:03:26.509Z,8.91
2018-12-23T13:04:26.499Z,8.82
2018-12-23T13:05:26.503Z,8.86
2018-12-23T13:06:26.483Z,8.83
2018-12-23T13:07:26.482Z,8.76
2018-12-23T13:08:26.459Z,8.75
2018-12-23T13:09:26.451Z,8.82
2018-12-23T13:10:26.448Z,8.75
2018-12-23T13:11:26.431Z,8.78
2018-12-23T13:12:26.411Z,8.71
2018-12-23T13:13:26.401Z,8.68
2018-12-23T13:14:26.390Z,8.73
2018-12-23T13:15:26.445Z,8.73
2018-12-23T13:16:26.381Z,8.64
2018-12-23T13:17:26.357Z,8.75
2018-12-23T13:18:26.346Z,8.76
2018-12-23T13:19:26.322Z,8.71
2018-12-23T13:20:28.309Z,8.57
2018-12-23T13:21:26.311Z,8.63
2018-12-23T13:22:26.300Z,8.64
2018-12-23T13:23:26.288Z,8.68
2018-12-23T13:24:26.278Z,8.50
2018-12-23T13:25:26.282Z,8.50
2018-12-23T13:26:26.254Z,8.47
2018-12-23T13:27:26.246Z,8.43
2018-12-23T13:28:26.245Z,8.36
2018-12-23T13:29:26.227Z,8.29
2018-12-23T13:30:26.221Z,8.36
2018-12-23T13:31:26.202Z,8.31
2018-12-23T13:32:26.195Z,8.27
2018-12-23T13:33:26.180Z,8.18
2018-12-23T13:34:26.169Z,8.22
2018-12-23T13:35:26.168Z,8.13
2018-12-23T13:36:26.149Z,8.14
2018-12-23T13:37:26.134Z,8.14
2018-12-23T13:38:26.122Z,8.06
2018-12-23T13:39:26.117Z,8.12
2018-12-23T13:40:26.119Z,8.07
2018-12-23T13:41:26.084Z,7.92
2018-12-23T13:42:26.079Z,7.94
2018-12-23T13:43:26.067Z,7.94
2018-12-23T13:44:26.055Z,7.94
2018-12-23T13:45:26.056Z,7.86
2018-12-23T13:46:26.034Z,7.85
2018-12-23T13:47:26.022Z,7.81
2018-12-23T13:48:26.011Z,7.85
2018-12-23T13:49:26.006Z,7.88
2018-12-23T13:50:26.012Z,7.84
2018-12-23T13:51:25.976Z,7.82
2018-12-23T13:52:25.963Z,7.82
2018-12-23T13:53:25.953Z,7.79
2018-12-23T13:54:25.942Z,7.79
2018-12-23T13:55:25.948Z,7.76
2018-12-23T13:56:25.919Z,7.69
2018-12-23T13:57:25.907Z,7.69
2018-12-23T13:58:25.897Z,7.69
2018-12-23T13:59:25.887Z,7.52
2018-12-23T14:00:25.887Z,7.51
2018-12-23T14:01:25.868Z,7.52
2018-12-23T14:02:25.855Z,7.55
2018-12-23T14:03:25.846Z,7.63
2018-12-23T14:04:25.832Z,7.55
2018-12-23T14:05:25.834Z,7.52
2018-12-23T14:06:25.810Z,7.55
2018-12-23T14:07:25.799Z,7.51
2018-12-23T14:08:25.787Z,7.52
2018-12-23T14:09:25.776Z,7.54
2018-12-23T14:10:25.779Z,7.57
2018-12-23T14:11:25.755Z,7.54
2018-12-23T14:12:25.746Z,7.60
2018-12-23T14:13:25.731Z,7.57
2018-12-23T14:14:25.720Z,7.45
2018-12-23T14:15:25.725Z,7.48
2018-12-23T14:16:25.697Z,7.47
2018-12-23T14:17:25.686Z,7.45
2018-12-23T14:18:25.677Z,7.47
2018-12-23T14:19:25.663Z,7.47
2018-12-23T14:20:25.668Z,7.45
2018-12-23T14:21:25.645Z,7.45
2018-12-23T14:22:25.630Z,7.44
2018-12-23T14:23:25.623Z,7.32
2018-12-23T14:24:25.607Z,7.44
2018-12-23T14:25:25.612Z,7.39
2018-12-23T14:26:25.598Z,7.33
2018-12-23T14:27:25.569Z,7.44
2018-12-23T14:28:25.562Z,7.36
2018-12-23T14:29:25.552Z,7.34
2018-12-23T14:30:25.556Z,7.29
2018-12-23T14:31:25.533Z,7.27
2018-12-23T14:32:25.517Z,7.27
2018-12-23T14:33:25.509Z,7.41
2018-12-23T14:34:25.522Z,7.39
2018-12-23T14:35:25.515Z,7.44
2018-12-23T14:36:25.494Z,7.47
2018-12-23T14:37:25.468Z,7.41
2018-12-23T14:38:25.465Z,7.51
2018-12-23T14:39:28.219Z,7.44
2018-12-23T14:40:26.270Z,7.51
2018-12-23T14:41:25.414Z,7.44
2018-12-23T14:42:25.421Z,7.41
2018-12-23T14:43:25.404Z,7.36
2018-12-23T14:44:25.433Z,7.29
2018-12-23T14:45:25.418Z,7.29
2018-12-23T14:46:25.363Z,7.30
2018-12-23T14:47:25.357Z,7.33
2018-12-23T14:48:25.351Z,7.23
2018-12-23T14:49:25.363Z,7.29
2018-12-23T14:50:25.349Z,7.29
2018-12-23T14:51:25.335Z,7.26
2018-12-23T14:52:25.311Z,7.27
2018-12-23T14:53:25.294Z,7.18
2018-12-23T14:54:25.281Z,7.18
2018-12-23T14:55:25.350Z,7.14
2018-12-23T14:56:25.254Z,7.26
2018-12-23T14:57:25.251Z,7.19
2018-12-23T14:58:25.242Z,7.23
2018-12-23T14:59:25.229Z,7.23
2018-12-23T15:00:25.217Z,7.23
2018-12-23T15:01:25.218Z,7.11
2018-12-23T15:02:25.197Z,7.24
2018-12-23T15:03:25.183Z,7.16
2018-12-23T15:04:25.168Z,7.15
2018-12-23T15:05:25.169Z,7.14
2018-12-23T15:06:25.170Z,7.21
2018-12-23T15:07:25.133Z,7.08
2018-12-23T15:08:25.132Z,7.16
2018-12-23T15:09:25.109Z,7.12
2018-12-23T15:10:25.100Z,7.08
2018-12-23T15:11:25.135Z,7.05
2018-12-23T15:12:25.078Z,7.00
2018-12-23T15:13:25.071Z,7.04
2018-12-23T15:14:25.065Z,6.99
2018-12-23T15:15:25.050Z,7.00
2018-12-23T15:16:25.057Z,6.93
2018-12-23T15:17:25.028Z,7.00
2018-12-23T15:18:25.018Z,6.96
2018-12-23T15:19:25.003Z,7.01
2018-12-23T15:20:24.998Z,6.96
2018-12-23T15:21:24.981Z,6.96
2018-12-23T15:22:24.981Z,6.87
2018-12-23T15:23:24.967Z,6.91
2018-12-23T15:24:24.951Z,6.90
2018-12-23T15:25:24.937Z,6.89
2018-12-23T15:26:24.944Z,6.87
2018-12-23T15:27:24.917Z,6.93
2018-12-23T15:28:24.912Z,6.86
2018-12-23T15:29:24.915Z,6.91
2018-12-23T15:30:24.876Z,6.79
2018-12-23T15:31:24.919Z,6.82
2018-12-23T15:32:24.862Z,6.81
2018-12-23T15:33:24.849Z,6.82
2018-12-23T15:34:24.847Z,6.82
2018-12-23T15:35:24.827Z,6.72
2018-12-23T15:36:24.837Z,6.89
2018-12-23T15:37:24.814Z,6.68
2018-12-23T15:38:24.805Z,6.79
2018-12-23T15:39:24.787Z,6.79
2018-12-23T15:40:24.774Z,6.76
2018-12-23T15:41:24.778Z,6.72
2018-12-23T15:42:24.747Z,6.78
2018-12-23T15:43:24.737Z,6.81
2018-12-23T15:44:24.730Z,6.72
2018-12-23T15:45:24.721Z,6.78
2018-12-23T15:46:24.732Z,6.82
2018-12-23T15:47:24.687Z,6.79
2018-12-23T15:48:24.684Z,6.81
2018-12-23T15:49:24.675Z,6.68
2018-12-23T15:50:24.669Z,6.78
2018-12-23T15:51:24.686Z,6.78
2018-12-23T15:52:24.644Z,6.79
2018-12-23T15:53:24.639Z,6.75
2018-12-23T15:54:24.622Z,6.72
2018-12-23T15:55:24.610Z,6.73
2018-12-23T15:56:24.616Z,6.69
2018-12-23T15:57:24.586Z,6.65
2018-12-23T15:58:24.579Z,6.71
2018-12-23T15:59:24.564Z,6.73
2018-12-23T16:00:24.557Z,6.73
2018-12-23T16:01:24.567Z,6.71
2018-12-23T16:02:24.528Z,6.79
2018-12-23T16:03:24.523Z,6.79
2018-12-23T16:04:24.516Z,6.81
2018-12-23T16:05:24.498Z,6.76
2018-12-23T16:06:24.501Z,6.69
2018-12-23T16:07:24.484Z,6.71
2018-12-23T16:08:24.463Z,6.72
2018-12-23T16:09:24.455Z,6.71
2018-12-23T16:10:24.447Z,6.61
2018-12-23T16:11:24.453Z,6.61
2018-12-23T16:12:24.456Z,6.68
2018-12-23T16:13:24.410Z,6.71
2018-12-23T16:14:24.386Z,6.71
2018-12-23T16:15:24.379Z,6.63
2018-12-23T16:16:24.395Z,6.63
2018-12-23T16:17:24.368Z,6.64
2018-12-23T16:18:24.350Z,6.65
2018-12-23T16:19:24.343Z,6.58
2018-12-23T16:20:24.331Z,6.55
2018-12-23T16:21:24.362Z,6.58
2018-12-23T16:22:24.309Z,6.55
2018-12-23T16:23:24.294Z,6.57
2018-12-23T16:24:24.284Z,6.54
2018-12-23T16:25:24.284Z,6.53
2018-12-23T16:26:24.299Z,6.58
2018-12-23T16:27:24.253Z,6.61
2018-12-23T16:28:24.272Z,6.55
2018-12-23T16:29:24.217Z,6.53
2018-12-23T16:30:24.229Z,6.51
2018-12-23T16:31:24.227Z,6.60
2018-12-23T16:32:24.196Z,6.55
2018-12-23T16:33:24.197Z,6.60
2018-12-23T16:34:24.173Z,6.60
2018-12-23T16:35:24.161Z,6.50
2018-12-23T16:36:24.186Z,6.48
2018-12-23T16:37:24.142Z,6.53
2018-12-23T16:38:24.146Z,6.50
2018-12-23T16:39:24.117Z,6.46
2018-12-23T16:40:24.105Z,6.53
2018-12-23T16:41:24.122Z,6.55
2018-12-23T16:42:24.091Z,6.48
2018-12-23T16:43:24.076Z,6.51
2018-12-23T16:44:24.063Z,6.45
2018-12-23T16:45:24.056Z,6.61
2018-12-23T16:46:24.059Z,6.50
2018-12-23T16:47:24.051Z,6.58
2018-12-23T16:48:24.012Z,6.45
2018-12-23T16:49:24.033Z,6.50
2018-12-23T16:50:24.012Z,6.48
2018-12-23T16:51:24.003Z,6.51
2018-12-23T16:52:23.994Z,6.57
2018-12-23T16:53:23.984Z,6.53
2018-12-23T16:54:23.949Z,6.42
2018-12-23T16:55:23.944Z,6.48
2018-12-23T16:56:23.952Z,6.45
2018-12-23T16:57:23.917Z,6.40
2018-12-23T16:58:23.907Z,6.28
2018-12-23T16:59:23.901Z,6.32
2018-12-23T17:00:23.901Z,6.35
2018-12-23T17:01:23.894Z,6.27
2018-12-23T17:02:23.870Z,6.32
2018-12-23T17:03:23.858Z,6.36
2018-12-23T17:04:23.846Z,6.36
2018-12-23T17:05:23.844Z,6.32
2018-12-23T17:06:25.779Z,6.36
2018-12-23T17:07:23.830Z,6.35
2018-12-23T17:08:23.796Z,6.35
2018-12-23T17:09:23.819Z,6.35
2018-12-23T17:10:23.781Z,6.39
2018-12-23T17:11:23.760Z,6.35
2018-12-23T17:12:23.790Z,6.38
2018-12-23T17:13:23.754Z,6.39
2018-12-23T17:14:23.733Z,6.35
2018-12-23T17:15:23.737Z,6.28
2018-12-23T17:16:23.715Z,6.35
2018-12-23T17:17:23.730Z,6.32
2018-12-23T17:18:23.684Z,6.33
2018-12-23T17:19:23.675Z,6.33
2018-12-23T17:20:23.663Z,6.32
2018-12-23T17:21:23.658Z,6.30
2018-12-23T17:22:23.663Z,6.39
2018-12-23T17:23:23.626Z,6.35
2018-12-23T17:24:23.617Z,6.35
2018-12-23T17:25:23.614Z,6.36
2018-12-23T17:26:23.601Z,6.45
2018-12-23T17:27:23.612Z,6.45
2018-12-23T17:28:25.246Z,6.46
2018-12-23T17:29:23.756Z,6.43
2018-12-23T17:30:23.554Z,6.40
2018-12-23T17:31:23.534Z,6.43
2018-12-23T17:32:24.988Z,6.43
2018-12-23T17:33:23.796Z,6.40
2018-12-23T17:34:25.532Z,6.46
2018-12-23T17:35:23.667Z,6.32
2018-12-23T17:36:23.665Z,6.33
2018-12-23T17:37:23.490Z,6.32
2018-12-23T17:38:23.460Z,6.32
2018-12-23T17:39:23.450Z,6.30
2018-12-23T17:40:25.179Z,6.33
2018-12-23T17:41:23.435Z,6.36
2018-12-23T17:42:23.431Z,6.43
2018-12-23T17:43:23.413Z,6.35
2018-12-23T17:44:23.393Z,6.35
2018-12-23T17:45:23.574Z,6.35
2018-12-23T17:46:23.371Z,6.40
2018-12-23T17:47:23.369Z,6.45
2018-12-23T17:48:23.347Z,6.43
2018-12-23T17:49:23.337Z,6.48
2018-12-23T17:50:23.323Z,6.43
2018-12-23T17:51:23.317Z,6.46
2018-12-23T17:52:23.652Z,6.45
2018-12-23T17:53:23.290Z,6.51
2018-12-23T17:54:23.278Z,6.51
2018-12-23T17:55:23.269Z,6.45
2018-12-23T17:56:23.257Z,6.48
2018-12-23T17:57:23.261Z,6.50
2018-12-23T17:58:23.231Z,6.42
2018-12-23T17:59:23.292Z,6.48
2018-12-23T18:00:23.210Z,6.45
2018-12-23T18:01:23.189Z,6.39
2018-12-23T18:02:23.200Z,6.33
2018-12-23T18:03:23.177Z,6.36
2018-12-23T18:04:23.166Z,6.32
2018-12-23T18:05:23.155Z,6.32
2018-12-23T18:06:25.103Z,6.35
2018-12-23T18:07:23.136Z,6.39
2018-12-23T18:08:23.121Z,6.40
2018-12-23T18:09:23.147Z,6.35
2018-12-23T18:10:25.384Z,6.39
2018-12-23T18:11:23.217Z,6.43
2018-12-23T18:12:23.115Z,6.43
2018-12-23T18:13:23.064Z,6.39
2018-12-23T18:14:23.048Z,6.43
2018-12-23T18:15:23.039Z,6.46
2018-12-23T18:16:23.061Z,6.46
2018-12-23T18:17:23.081Z,6.38
2018-12-23T18:18:24.320Z,6.39